sensor_id;sensor_type;location;lat;lon;timestamp;temperature;humidity
76838;DHT22;65797;47.352;8.164;2023-01-23T00:00:55;-0.80;1.00
76838;DHT22;65797;47.352;8.164;2023-01-23T00:03:21;-0.70;24.30
76838;DHT22;65797;47.352;8.164;2023-01-23T00:06:00;-0.80;1.00
76838;DHT22;65797;47.352;8.164;2023-01-23T00:08:27;-0.80;1.00
76838;DHT22;65797;47.352;8.164;2023-01-23T00:10:53;-0.80;1.00
76838;DHT22;65797;47.352;8.164;2023-01-23T00:13:18;-0.80;87.60
76838;DHT22;65797;47.352;8.164;2023-01-23T00:15:45;-0.80;1.00
76838;DHT22;65797;47.352;8.164;2023-01-23T00:18:11;-0.80;1.00
76838;DHT22;65797;47.352;8.164;2023-01-23T00:20:37;-0.80;1.00
76838;DHT22;65797;47.352;8.164;2023-01-23T00:23:03;-0.80;1.00
76838;DHT22;65797;47.352;8.164;2023-01-23T00:25:29;-0.80;1.00
76838;DHT22;65797;47.352;8.164;2023-01-23T00:27:54;-0.80;1.00
76838;DHT22;65797;47.352;8.164;2023-01-23T00:30:20;-0.80;1.00
76838;DHT22;65797;47.352;8.164;2023-01-23T00:32:46;-0.80;1.00
76838;DHT22;65797;47.352;8.164;2023-01-23T00:35:11;-0.80;1.00
76838;DHT22;65797;47.352;8.164;2023-01-23T00:37:37;-0.80;1.00
76838;DHT22;65797;47.352;8.164;2023-01-23T00:40:03;-0.80;1.00
76838;DHT22;65797;47.352;8.164;2023-01-23T00:42:29;-0.80;1.00
76838;DHT22;65797;47.352;8.164;2023-01-23T00:44:54;-0.80;1.00
76838;DHT22;65797;47.352;8.164;2023-01-23T00:47:20;-0.80;57.90
76838;DHT22;65797;47.352;8.164;2023-01-23T00:49:46;-0.80;26.00
76838;DHT22;65797;47.352;8.164;2023-01-23T00:52:11;-0.70;77.10
76838;DHT22;65797;47.352;8.164;2023-01-23T00:54:37;-0.80;38.50
76838;DHT22;65797;47.352;8.164;2023-01-23T00:57:03;-0.80;1.00
76838;DHT22;65797;47.352;8.164;2023-01-23T00:59:29;-0.80;91.90
76838;DHT22;65797;47.352;8.164;2023-01-23T01:01:55;-0.80;32.80
76838;DHT22;65797;47.352;8.164;2023-01-23T01:04:21;-0.80;98.70
76838;DHT22;65797;47.352;8.164;2023-01-23T01:09:22;-0.70;74.50
76838;DHT22;65797;47.352;8.164;2023-01-23T01:11:48;-0.70;6.90
76838;DHT22;65797;47.352;8.164;2023-01-23T01:14:14;-0.70;1.00
76838;DHT22;65797;47.352;8.164;2023-01-23T01:16:40;-0.70;6.40
76838;DHT22;65797;47.352;8.164;2023-01-23T01:19:10;-0.70;1.00
76838;DHT22;65797;47.352;8.164;2023-01-23T01:21:36;-0.70;1.00
76838;DHT22;65797;47.352;8.164;2023-01-23T01:24:03;-0.70;48.70
76838;DHT22;65797;47.352;8.164;2023-01-23T01:26:29;-0.70;48.60
76838;DHT22;65797;47.352;8.164;2023-01-23T01:28:55;-0.70;55.60
76838;DHT22;65797;47.352;8.164;2023-01-23T01:31:21;-0.70;99.90
76838;DHT22;65797;47.352;8.164;2023-01-23T01:33:47;-0.60;99.90
76838;DHT22;65797;47.352;8.164;2023-01-23T01:36:16;-0.70;99.90
76838;DHT22;65797;47.352;8.164;2023-01-23T01:38:43;-0.70;99.90
76838;DHT22;65797;47.352;8.164;2023-01-23T01:41:09;-0.60;99.90
76838;DHT22;65797;47.352;8.164;2023-01-23T01:43:36;-0.60;99.90
76838;DHT22;65797;47.352;8.164;2023-01-23T01:59:22;-0.60;99.90
76838;DHT22;65797;47.352;8.164;2023-01-23T02:01:52;-0.60;99.90
76838;DHT22;65797;47.352;8.164;2023-01-23T02:04:20;-0.60;99.90
76838;DHT22;65797;47.352;8.164;2023-01-23T02:06:46;-0.50;99.90
76838;DHT22;65797;47.352;8.164;2023-01-23T02:09:24;-0.60;99.90
76838;DHT22;65797;47.352;8.164;2023-01-23T02:11:50;-0.60;99.90
76838;DHT22;65797;47.352;8.164;2023-01-23T02:14:15;-0.60;99.90
76838;DHT22;65797;47.352;8.164;2023-01-23T02:16:42;-0.60;99.90
76838;DHT22;65797;47.352;8.164;2023-01-23T02:25:28;-0.70;99.90
76838;DHT22;65797;47.352;8.164;2023-01-23T02:27:56;-0.70;99.90
76838;DHT22;65797;47.352;8.164;2023-01-23T02:30:22;-0.70;99.90
76838;DHT22;65797;47.352;8.164;2023-01-23T02:32:48;-0.70;99.90
76838;DHT22;65797;47.352;8.164;2023-01-23T02:35:34;-0.70;99.90
76838;DHT22;65797;47.352;8.164;2023-01-23T02:38:03;-0.80;99.90
76838;DHT22;65797;47.352;8.164;2023-01-23T02:40:34;-0.80;99.90
76838;DHT22;65797;47.352;8.164;2023-01-23T02:43:04;-0.80;99.90
76838;DHT22;65797;47.352;8.164;2023-01-23T02:45:31;-0.90;99.90
76838;DHT22;65797;47.352;8.164;2023-01-23T02:47:57;-0.90;86.90
76838;DHT22;65797;47.352;8.164;2023-01-23T02:50:23;-0.90;76.20
76838;DHT22;65797;47.352;8.164;2023-01-23T02:52:49;-0.90;60.00
76838;DHT22;65797;47.352;8.164;2023-01-23T02:55:20;-0.90;65.00
76838;DHT22;65797;47.352;8.164;2023-01-23T02:57:46;-0.90;94.80
76838;DHT22;65797;47.352;8.164;2023-01-23T03:00:13;-0.90;99.60
76838;DHT22;65797;47.352;8.164;2023-01-23T03:02:46;-0.90;72.80
76838;DHT22;65797;47.352;8.164;2023-01-23T03:05:12;-0.90;79.50
76838;DHT22;65797;47.352;8.164;2023-01-23T03:07:37;-1.00;95.30
76838;DHT22;65797;47.352;8.164;2023-01-23T03:10:04;-1.00;85.90
76838;DHT22;65797;47.352;8.164;2023-01-23T03:12:30;-1.00;75.80
76838;DHT22;65797;47.352;8.164;2023-01-23T03:14:56;-1.00;55.30
76838;DHT22;65797;47.352;8.164;2023-01-23T03:17:23;-1.00;90.40
76838;DHT22;65797;47.352;8.164;2023-01-23T03:19:49;-1.00;81.00
76838;DHT22;65797;47.352;8.164;2023-01-23T03:22:16;-1.00;1.00
76838;DHT22;65797;47.352;8.164;2023-01-23T03:24:41;-1.00;1.00
76838;DHT22;65797;47.352;8.164;2023-01-23T03:27:07;-1.00;29.30
76838;DHT22;65797;47.352;8.164;2023-01-23T03:29:33;-1.00;1.00
76838;DHT22;65797;47.352;8.164;2023-01-23T03:32:17;-1.00;44.20
76838;DHT22;65797;47.352;8.164;2023-01-23T03:34:43;-1.10;22.00
76838;DHT22;65797;47.352;8.164;2023-01-23T03:37:10;-1.00;1.00
76838;DHT22;65797;47.352;8.164;2023-01-23T03:39:36;-1.00;1.00
76838;DHT22;65797;47.352;8.164;2023-01-23T03:42:20;-1.00;1.00
76838;DHT22;65797;47.352;8.164;2023-01-23T03:44:47;-1.00;1.00
76838;DHT22;65797;47.352;8.164;2023-01-23T03:47:12;-1.00;1.00
76838;DHT22;65797;47.352;8.164;2023-01-23T03:49:38;-1.00;1.00
76838;DHT22;65797;47.352;8.164;2023-01-23T03:52:04;-1.00;1.00
76838;DHT22;65797;47.352;8.164;2023-01-23T03:54:30;-1.00;1.00
76838;DHT22;65797;47.352;8.164;2023-01-23T03:56:56;-1.00;1.00
76838;DHT22;65797;47.352;8.164;2023-01-23T03:59:22;-1.00;1.00
76838;DHT22;65797;47.352;8.164;2023-01-23T04:01:47;-1.00;1.00
76838;DHT22;65797;47.352;8.164;2023-01-23T04:04:13;-1.00;1.00
76838;DHT22;65797;47.352;8.164;2023-01-23T04:06:39;-1.00;1.00
76838;DHT22;65797;47.352;8.164;2023-01-23T04:09:04;-1.00;1.00
76838;DHT22;65797;47.352;8.164;2023-01-23T04:11:30;-1.10;1.00
76838;DHT22;65797;47.352;8.164;2023-01-23T04:13:56;-1.00;1.00
76838;DHT22;65797;47.352;8.164;2023-01-23T04:16:22;-1.10;1.00
76838;DHT22;65797;47.352;8.164;2023-01-23T04:18:51;-1.10;1.00
76838;DHT22;65797;47.352;8.164;2023-01-23T04:21:17;-1.10;1.00
76838;DHT22;65797;47.352;8.164;2023-01-23T04:23:43;-1.00;1.00
76838;DHT22;65797;47.352;8.164;2023-01-23T04:26:08;-1.10;1.00
76838;DHT22;65797;47.352;8.164;2023-01-23T04:28:34;-1.10;1.00
76838;DHT22;65797;47.352;8.164;2023-01-23T04:31:00;-1.20;1.00
76838;DHT22;65797;47.352;8.164;2023-01-23T04:33:25;-1.20;1.00
76838;DHT22;65797;47.352;8.164;2023-01-23T04:35:59;-1.10;1.00
76838;DHT22;65797;47.352;8.164;2023-01-23T04:38:27;-1.10;1.00
76838;DHT22;65797;47.352;8.164;2023-01-23T04:40:53;-1.10;1.00
76838;DHT22;65797;47.352;8.164;2023-01-23T04:43:19;-1.10;1.00
76838;DHT22;65797;47.352;8.164;2023-01-23T04:45:45;-1.10;4.90
76838;DHT22;65797;47.352;8.164;2023-01-23T04:48:14;-1.10;29.50
76838;DHT22;65797;47.352;8.164;2023-01-23T04:50:39;-1.10;1.00
76838;DHT22;65797;47.352;8.164;2023-01-23T04:53:05;-1.10;21.60
76838;DHT22;65797;47.352;8.164;2023-01-23T04:55:31;-1.10;1.00
76838;DHT22;65797;47.352;8.164;2023-01-23T04:57:58;-1.20;1.00
76838;DHT22;65797;47.352;8.164;2023-01-23T05:00:24;-1.10;1.00
76838;DHT22;65797;47.352;8.164;2023-01-23T05:02:50;-1.20;1.00
76838;DHT22;65797;47.352;8.164;2023-01-23T05:05:16;-1.20;1.00
76838;DHT22;65797;47.352;8.164;2023-01-23T05:07:42;-1.20;1.00
76838;DHT22;65797;47.352;8.164;2023-01-23T05:10:09;-1.30;1.00
76838;DHT22;65797;47.352;8.164;2023-01-23T05:12:35;-1.30;1.00
76838;DHT22;65797;47.352;8.164;2023-01-23T05:15:00;-1.30;1.00
76838;DHT22;65797;47.352;8.164;2023-01-23T05:17:26;-1.20;1.00
76838;DHT22;65797;47.352;8.164;2023-01-23T05:19:52;-1.30;1.00
76838;DHT22;65797;47.352;8.164;2023-01-23T05:22:18;-1.30;1.00
76838;DHT22;65797;47.352;8.164;2023-01-23T05:24:43;-1.30;1.00
76838;DHT22;65797;47.352;8.164;2023-01-23T05:27:10;-1.30;1.00
76838;DHT22;65797;47.352;8.164;2023-01-23T05:29:36;-1.40;1.00
76838;DHT22;65797;47.352;8.164;2023-01-23T05:32:01;-1.40;1.00
76838;DHT22;65797;47.352;8.164;2023-01-23T05:34:27;-1.30;1.00
76838;DHT22;65797;47.352;8.164;2023-01-23T05:36:53;-1.30;1.00
76838;DHT22;65797;47.352;8.164;2023-01-23T05:39:18;-1.30;1.00
76838;DHT22;65797;47.352;8.164;2023-01-23T05:41:44;-1.40;1.00
76838;DHT22;65797;47.352;8.164;2023-01-23T05:44:10;-1.40;1.00
76838;DHT22;65797;47.352;8.164;2023-01-23T05:46:35;-1.40;1.00
76838;DHT22;65797;47.352;8.164;2023-01-23T05:49:01;-1.30;1.00
76838;DHT22;65797;47.352;8.164;2023-01-23T05:51:26;-1.40;1.00
76838;DHT22;65797;47.352;8.164;2023-01-23T05:53:57;-1.40;1.00
76838;DHT22;65797;47.352;8.164;2023-01-23T05:56:24;-1.40;1.00
76838;DHT22;65797;47.352;8.164;2023-01-23T05:58:49;-1.50;1.00
76838;DHT22;65797;47.352;8.164;2023-01-23T06:01:16;-1.50;1.00
76838;DHT22;65797;47.352;8.164;2023-01-23T06:03:42;-1.40;1.00
76838;DHT22;65797;47.352;8.164;2023-01-23T06:06:08;-1.50;1.00
76838;DHT22;65797;47.352;8.164;2023-01-23T06:08:33;-1.50;1.00
76838;DHT22;65797;47.352;8.164;2023-01-23T06:10:59;-1.40;1.00
76838;DHT22;65797;47.352;8.164;2023-01-23T06:13:28;-1.40;1.00
76838;DHT22;65797;47.352;8.164;2023-01-23T06:15:54;-1.40;1.00
76838;DHT22;65797;47.352;8.164;2023-01-23T06:18:20;-1.50;1.00
76838;DHT22;65797;47.352;8.164;2023-01-23T06:20:46;-1.50;1.00
76838;DHT22;65797;47.352;8.164;2023-01-23T06:23:12;-1.50;1.00
76838;DHT22;65797;47.352;8.164;2023-01-23T06:25:38;-1.50;1.00
76838;DHT22;65797;47.352;8.164;2023-01-23T06:28:03;-1.50;1.00
76838;DHT22;65797;47.352;8.164;2023-01-23T06:30:29;-1.50;1.00
76838;DHT22;65797;47.352;8.164;2023-01-23T06:32:55;-1.50;1.00
76838;DHT22;65797;47.352;8.164;2023-01-23T06:35:21;-1.50;1.00
76838;DHT22;65797;47.352;8.164;2023-01-23T06:37:47;-1.60;1.00
76838;DHT22;65797;47.352;8.164;2023-01-23T06:40:13;-1.50;1.00
76838;DHT22;65797;47.352;8.164;2023-01-23T06:42:41;-1.60;1.00
76838;DHT22;65797;47.352;8.164;2023-01-23T06:45:09;-1.60;1.00
76838;DHT22;65797;47.352;8.164;2023-01-23T06:47:35;-1.60;1.00
76838;DHT22;65797;47.352;8.164;2023-01-23T06:50:01;-1.60;1.00
76838;DHT22;65797;47.352;8.164;2023-01-23T06:52:27;-1.70;1.00
76838;DHT22;65797;47.352;8.164;2023-01-23T06:54:53;-1.70;1.00
76838;DHT22;65797;47.352;8.164;2023-01-23T06:57:19;-1.70;1.00
76838;DHT22;65797;47.352;8.164;2023-01-23T06:59:45;-1.70;1.00
76838;DHT22;65797;47.352;8.164;2023-01-23T07:02:11;-1.70;1.00
76838;DHT22;65797;47.352;8.164;2023-01-23T07:04:37;-1.70;1.00
76838;DHT22;65797;47.352;8.164;2023-01-23T07:07:03;-1.70;1.00
76838;DHT22;65797;47.352;8.164;2023-01-23T07:09:28;-1.70;1.00
76838;DHT22;65797;47.352;8.164;2023-01-23T07:11:54;-1.70;1.00
76838;DHT22;65797;47.352;8.164;2023-01-23T07:14:20;-1.80;1.00
76838;DHT22;65797;47.352;8.164;2023-01-23T07:16:46;-1.70;1.00
76838;DHT22;65797;47.352;8.164;2023-01-23T07:19:12;-1.80;1.00
76838;DHT22;65797;47.352;8.164;2023-01-23T07:21:37;-1.80;1.00
76838;DHT22;65797;47.352;8.164;2023-01-23T07:24:03;-1.80;1.00
76838;DHT22;65797;47.352;8.164;2023-01-23T07:26:29;-1.80;1.00
76838;DHT22;65797;47.352;8.164;2023-01-23T07:28:55;-1.70;1.00
76838;DHT22;65797;47.352;8.164;2023-01-23T07:31:21;-1.80;1.00
76838;DHT22;65797;47.352;8.164;2023-01-23T07:33:46;-1.70;1.00
76838;DHT22;65797;47.352;8.164;2023-01-23T07:36:12;-1.80;1.00
76838;DHT22;65797;47.352;8.164;2023-01-23T07:38:39;-1.80;1.00
76838;DHT22;65797;47.352;8.164;2023-01-23T07:41:05;-1.80;1.00
76838;DHT22;65797;47.352;8.164;2023-01-23T07:43:30;-1.80;1.00
76838;DHT22;65797;47.352;8.164;2023-01-23T07:45:59;-1.80;1.00
76838;DHT22;65797;47.352;8.164;2023-01-23T07:48:25;-1.80;1.00
76838;DHT22;65797;47.352;8.164;2023-01-23T07:50:51;-1.80;1.00
76838;DHT22;65797;47.352;8.164;2023-01-23T07:53:16;-1.80;1.00
76838;DHT22;65797;47.352;8.164;2023-01-23T07:55:42;-1.80;1.00
76838;DHT22;65797;47.352;8.164;2023-01-23T07:58:08;-1.80;1.00
76838;DHT22;65797;47.352;8.164;2023-01-23T08:00:34;-1.80;1.00
76838;DHT22;65797;47.352;8.164;2023-01-23T08:03:01;-1.80;1.00
76838;DHT22;65797;47.352;8.164;2023-01-23T08:05:27;-1.80;1.00
76838;DHT22;65797;47.352;8.164;2023-01-23T08:07:52;-1.80;1.00
76838;DHT22;65797;47.352;8.164;2023-01-23T08:10:18;-1.80;1.00
76838;DHT22;65797;47.352;8.164;2023-01-23T08:12:44;-1.80;1.00
76838;DHT22;65797;47.352;8.164;2023-01-23T08:15:10;-1.70;1.00
76838;DHT22;65797;47.352;8.164;2023-01-23T08:28:23;-1.60;1.00
76838;DHT22;65797;47.352;8.164;2023-01-23T08:30:49;-1.60;1.00
76838;DHT22;65797;47.352;8.164;2023-01-23T08:33:16;-1.60;1.00
76838;DHT22;65797;47.352;8.164;2023-01-23T08:35:53;-1.60;1.00
76838;DHT22;65797;47.352;8.164;2023-01-23T08:38:21;-1.60;1.00
76838;DHT22;65797;47.352;8.164;2023-01-23T08:40:48;-1.60;1.00
76838;DHT22;65797;47.352;8.164;2023-01-23T08:43:15;-1.60;1.00
76838;DHT22;65797;47.352;8.164;2023-01-23T08:45:46;-1.50;1.00
76838;DHT22;65797;47.352;8.164;2023-01-23T08:48:12;-1.50;1.00
76838;DHT22;65797;47.352;8.164;2023-01-23T08:50:37;-1.50;1.00
76838;DHT22;65797;47.352;8.164;2023-01-23T08:53:03;-1.50;1.00
76838;DHT22;65797;47.352;8.164;2023-01-23T08:55:29;-1.50;1.00
76838;DHT22;65797;47.352;8.164;2023-01-23T08:57:56;-1.40;1.00
76838;DHT22;65797;47.352;8.164;2023-01-23T09:00:22;-1.40;1.00
76838;DHT22;65797;47.352;8.164;2023-01-23T09:02:48;-1.40;1.00
76838;DHT22;65797;47.352;8.164;2023-01-23T09:05:14;-1.40;1.00
76838;DHT22;65797;47.352;8.164;2023-01-23T09:07:40;-1.40;1.00
76838;DHT22;65797;47.352;8.164;2023-01-23T09:10:06;-1.40;1.00
76838;DHT22;65797;47.352;8.164;2023-01-23T09:12:32;-1.40;1.00
76838;DHT22;65797;47.352;8.164;2023-01-23T09:14:58;-1.40;1.00
76838;DHT22;65797;47.352;8.164;2023-01-23T09:17:24;-1.30;1.00
76838;DHT22;65797;47.352;8.164;2023-01-23T09:19:50;-1.30;1.00
76838;DHT22;65797;47.352;8.164;2023-01-23T09:22:16;-1.30;1.00
76838;DHT22;65797;47.352;8.164;2023-01-23T09:24:42;-1.30;1.00
76838;DHT22;65797;47.352;8.164;2023-01-23T09:27:07;-1.30;1.00
76838;DHT22;65797;47.352;8.164;2023-01-23T09:29:34;-1.30;1.00
76838;DHT22;65797;47.352;8.164;2023-01-23T09:32:00;-1.30;1.00
76838;DHT22;65797;47.352;8.164;2023-01-23T09:34:26;-1.30;1.00
76838;DHT22;65797;47.352;8.164;2023-01-23T09:36:52;-1.30;1.00
76838;DHT22;65797;47.352;8.164;2023-01-23T09:39:18;-1.30;1.00
76838;DHT22;65797;47.352;8.164;2023-01-23T09:41:45;-1.30;1.00
76838;DHT22;65797;47.352;8.164;2023-01-23T09:44:19;-1.20;1.00
76838;DHT22;65797;47.352;8.164;2023-01-23T09:46:52;-1.30;1.00
76838;DHT22;65797;47.352;8.164;2023-01-23T09:49:29;-1.20;1.00
76838;DHT22;65797;47.352;8.164;2023-01-23T09:52:02;-1.20;1.00
76838;DHT22;65797;47.352;8.164;2023-01-23T09:54:42;-1.20;1.00
76838;DHT22;65797;47.352;8.164;2023-01-23T09:57:34;-1.20;1.00
76838;DHT22;65797;47.352;8.164;2023-01-23T10:00:21;-1.20;1.00
76838;DHT22;65797;47.352;8.164;2023-01-23T10:02:48;-1.30;1.00
76838;DHT22;65797;47.352;8.164;2023-01-23T10:05:19;-1.20;1.00
76838;DHT22;65797;47.352;8.164;2023-01-23T10:18:50;-1.20;1.00
76838;DHT22;65797;47.352;8.164;2023-01-23T10:21:49;-1.10;1.00
76838;DHT22;65797;47.352;8.164;2023-01-23T10:27:15;-1.20;1.00
76838;DHT22;65797;47.352;8.164;2023-01-23T10:29:55;-1.20;1.00
76838;DHT22;65797;47.352;8.164;2023-01-23T10:32:30;-1.10;1.00
76838;DHT22;65797;47.352;8.164;2023-01-23T10:35:06;-1.10;1.00
76838;DHT22;65797;47.352;8.164;2023-01-23T10:40:32;-1.10;1.00
76838;DHT22;65797;47.352;8.164;2023-01-23T10:43:18;-1.00;1.00
76838;DHT22;65797;47.352;8.164;2023-01-23T10:45:46;-1.00;1.00
76838;DHT22;65797;47.352;8.164;2023-01-23T10:50:57;-1.00;1.00
76838;DHT22;65797;47.352;8.164;2023-01-23T10:53:23;-1.00;1.00
76838;DHT22;65797;47.352;8.164;2023-01-23T10:55:51;-1.00;1.00
76838;DHT22;65797;47.352;8.164;2023-01-23T10:58:37;-1.00;1.00
76838;DHT22;65797;47.352;8.164;2023-01-23T11:01:16;-1.00;1.00
76838;DHT22;65797;47.352;8.164;2023-01-23T11:03:47;-0.90;1.00
76838;DHT22;65797;47.352;8.164;2023-01-23T11:06:19;-0.90;1.00
76838;DHT22;65797;47.352;8.164;2023-01-23T11:08:55;-0.90;1.00
76838;DHT22;65797;47.352;8.164;2023-01-23T11:11:27;-0.90;1.00
76838;DHT22;65797;47.352;8.164;2023-01-23T11:14:11;-0.90;1.00
76838;DHT22;65797;47.352;8.164;2023-01-23T11:16:38;-0.90;1.00
76838;DHT22;65797;47.352;8.164;2023-01-23T11:19:14;-0.90;1.00
76838;DHT22;65797;47.352;8.164;2023-01-23T11:26:43;-0.80;1.00
76838;DHT22;65797;47.352;8.164;2023-01-23T11:31:47;-0.80;1.00
76838;DHT22;65797;47.352;8.164;2023-01-23T11:34:17;-0.70;1.00
76838;DHT22;65797;47.352;8.164;2023-01-23T11:42:13;-0.70;1.00
76838;DHT22;65797;47.352;8.164;2023-01-23T11:44:40;-0.60;1.00
76838;DHT22;65797;47.352;8.164;2023-01-23T11:47:31;-0.60;1.00
76838;DHT22;65797;47.352;8.164;2023-01-23T11:50:15;-0.60;1.00
76838;DHT22;65797;47.352;8.164;2023-01-23T11:52:49;-0.60;1.00
76838;DHT22;65797;47.352;8.164;2023-01-23T12:06:48;-0.40;1.00
76838;DHT22;65797;47.352;8.164;2023-01-23T12:09:20;-0.40;1.00
76838;DHT22;65797;47.352;8.164;2023-01-23T12:12:10;-0.40;1.00
76838;DHT22;65797;47.352;8.164;2023-01-23T12:23:07;-0.30;1.00
76838;DHT22;65797;47.352;8.164;2023-01-23T12:25:40;-0.30;1.00
76838;DHT22;65797;47.352;8.164;2023-01-23T12:34:02;-0.30;1.00
76838;DHT22;65797;47.352;8.164;2023-01-23T12:42:28;-0.20;1.00
76838;DHT22;65797;47.352;8.164;2023-01-23T12:45:12;-0.20;1.00
76838;DHT22;65797;47.352;8.164;2023-01-23T12:48:05;-0.20;1.00
76838;DHT22;65797;47.352;8.164;2023-01-23T12:50:39;-0.20;1.00
76838;DHT22;65797;47.352;8.164;2023-01-23T12:53:13;-0.20;1.00
76838;DHT22;65797;47.352;8.164;2023-01-23T12:58:36;-0.20;1.00
76838;DHT22;65797;47.352;8.164;2023-01-23T13:09:38;-0.10;1.00
76838;DHT22;65797;47.352;8.164;2023-01-23T13:12:25;-0.10;1.00
76838;DHT22;65797;47.352;8.164;2023-01-23T13:15:37;-0.10;1.00
76838;DHT22;65797;47.352;8.164;2023-01-23T13:20:27;-0.10;99.90
76838;DHT22;65797;47.352;8.164;2023-01-23T13:23:32;-0.20;99.90
76838;DHT22;65797;47.352;8.164;2023-01-23T13:26:23;-0.20;99.90
76838;DHT22;65797;47.352;8.164;2023-01-23T13:28:52;-0.20;99.90
76838;DHT22;65797;47.352;8.164;2023-01-23T13:31:43;-0.20;99.90
76838;DHT22;65797;47.352;8.164;2023-01-23T13:36:53;-0.20;99.90
76838;DHT22;65797;47.352;8.164;2023-01-23T13:39:23;-0.20;99.90
76838;DHT22;65797;47.352;8.164;2023-01-23T13:48:00;-0.10;91.70
76838;DHT22;65797;47.352;8.164;2023-01-23T13:50:52;-0.10;99.90
76838;DHT22;65797;47.352;8.164;2023-01-23T13:53:24;-0.10;99.90
76838;DHT22;65797;47.352;8.164;2023-01-23T13:56:21;-0.10;99.90
76838;DHT22;65797;47.352;8.164;2023-01-23T13:59:08;0.00;99.90
76838;DHT22;65797;47.352;8.164;2023-01-23T14:01:42;0.00;99.90
76838;DHT22;65797;47.352;8.164;2023-01-23T14:04:28;0.00;99.90
76838;DHT22;65797;47.352;8.164;2023-01-23T14:07:33;0.00;99.90
76838;DHT22;65797;47.352;8.164;2023-01-23T14:10:30;0.00;99.90
76838;DHT22;65797;47.352;8.164;2023-01-23T14:13:17;0.10;98.80
76838;DHT22;65797;47.352;8.164;2023-01-23T14:15:49;0.10;75.20
76838;DHT22;65797;47.352;8.164;2023-01-23T14:18:43;0.10;75.90
76838;DHT22;65797;47.352;8.164;2023-01-23T14:21:27;0.20;29.30
76838;DHT22;65797;47.352;8.164;2023-01-23T14:23:58;0.20;1.00
76838;DHT22;65797;47.352;8.164;2023-01-23T14:26:27;0.20;1.00
76838;DHT22;65797;47.352;8.164;2023-01-23T14:28:57;0.20;1.00
76838;DHT22;65797;47.352;8.164;2023-01-23T14:31:33;0.20;2.90
76838;DHT22;65797;47.352;8.164;2023-01-23T14:34:04;0.20;94.50
76838;DHT22;65797;47.352;8.164;2023-01-23T14:36:33;0.20;99.90
76838;DHT22;65797;47.352;8.164;2023-01-23T14:38:59;0.20;99.90
76838;DHT22;65797;47.352;8.164;2023-01-23T14:41:30;0.20;99.90
76838;DHT22;65797;47.352;8.164;2023-01-23T14:43:57;0.20;90.90
76838;DHT22;65797;47.352;8.164;2023-01-23T14:46:36;0.20;25.90
76838;DHT22;65797;47.352;8.164;2023-01-23T14:49:06;0.20;31.90
76838;DHT22;65797;47.352;8.164;2023-01-23T14:51:32;0.20;29.70
76838;DHT22;65797;47.352;8.164;2023-01-23T14:54:14;0.20;22.70
76838;DHT22;65797;47.352;8.164;2023-01-23T14:56:41;0.20;98.30
76838;DHT22;65797;47.352;8.164;2023-01-23T14:59:29;0.30;1.00
76838;DHT22;65797;47.352;8.164;2023-01-23T15:01:57;0.30;1.00
76838;DHT22;65797;47.352;8.164;2023-01-23T15:04:25;0.30;1.00
76838;DHT22;65797;47.352;8.164;2023-01-23T15:06:55;0.30;1.00
76838;DHT22;65797;47.352;8.164;2023-01-23T15:09:34;0.30;22.60
76838;DHT22;65797;47.352;8.164;2023-01-23T15:12:29;0.30;26.00
76838;DHT22;65797;47.352;8.164;2023-01-23T15:14:55;0.30;1.00
76838;DHT22;65797;47.352;8.164;2023-01-23T15:17:21;0.30;1.00
76838;DHT22;65797;47.352;8.164;2023-01-23T15:19:52;0.30;1.00
76838;DHT22;65797;47.352;8.164;2023-01-23T15:22:26;0.30;1.00
76838;DHT22;65797;47.352;8.164;2023-01-23T15:24:52;0.40;1.00
76838;DHT22;65797;47.352;8.164;2023-01-23T15:27:32;0.30;11.70
76838;DHT22;65797;47.352;8.164;2023-01-23T15:32:59;0.40;1.00
76838;DHT22;65797;47.352;8.164;2023-01-23T15:35:32;0.40;1.00
76838;DHT22;65797;47.352;8.164;2023-01-23T15:37:58;0.40;1.00
76838;DHT22;65797;47.352;8.164;2023-01-23T15:40:31;0.40;1.00
76838;DHT22;65797;47.352;8.164;2023-01-23T15:43:20;0.40;1.00
76838;DHT22;65797;47.352;8.164;2023-01-23T15:45:45;0.40;1.00
76838;DHT22;65797;47.352;8.164;2023-01-23T15:48:11;0.40;1.00
76838;DHT22;65797;47.352;8.164;2023-01-23T15:50:37;0.40;46.70
76838;DHT22;65797;47.352;8.164;2023-01-23T15:53:08;0.40;1.00
76838;DHT22;65797;47.352;8.164;2023-01-23T15:55:34;0.40;1.00
76838;DHT22;65797;47.352;8.164;2023-01-23T15:58:00;0.40;1.00
76838;DHT22;65797;47.352;8.164;2023-01-23T16:00:27;0.40;1.00
76838;DHT22;65797;47.352;8.164;2023-01-23T16:02:54;0.40;7.50
76838;DHT22;65797;47.352;8.164;2023-01-23T16:05:26;0.40;20.00
76838;DHT22;65797;47.352;8.164;2023-01-23T16:07:54;0.50;2.50
76838;DHT22;65797;47.352;8.164;2023-01-23T16:10:25;0.50;1.00
76838;DHT22;65797;47.352;8.164;2023-01-23T16:12:54;0.50;1.00
76838;DHT22;65797;47.352;8.164;2023-01-23T16:15:28;0.50;1.00
76838;DHT22;65797;47.352;8.164;2023-01-23T16:17:54;0.50;36.10
76838;DHT22;65797;47.352;8.164;2023-01-23T16:20:23;0.50;1.60
76838;DHT22;65797;47.352;8.164;2023-01-23T16:22:55;0.50;6.10
76838;DHT22;65797;47.352;8.164;2023-01-23T16:25:28;0.50;1.00
76838;DHT22;65797;47.352;8.164;2023-01-23T16:27:55;0.50;1.00
76838;DHT22;65797;47.352;8.164;2023-01-23T16:30:22;0.50;1.00
76838;DHT22;65797;47.352;8.164;2023-01-23T16:32:50;0.50;16.00
76838;DHT22;65797;47.352;8.164;2023-01-23T16:35:16;0.60;1.00
76838;DHT22;65797;47.352;8.164;2023-01-23T16:37:45;0.60;21.40
76838;DHT22;65797;47.352;8.164;2023-01-23T16:40:37;0.60;1.00
76838;DHT22;65797;47.352;8.164;2023-01-23T16:43:03;0.60;38.30
76838;DHT22;65797;47.352;8.164;2023-01-23T16:45:30;0.60;17.10
76838;DHT22;65797;47.352;8.164;2023-01-23T16:47:57;0.50;99.90
76838;DHT22;65797;47.352;8.164;2023-01-23T16:50:34;0.60;41.60
76838;DHT22;65797;47.352;8.164;2023-01-23T16:53:07;0.60;99.30
76838;DHT22;65797;47.352;8.164;2023-01-23T16:55:37;0.60;1.00
76838;DHT22;65797;47.352;8.164;2023-01-23T16:58:04;0.60;13.60
76838;DHT22;65797;47.352;8.164;2023-01-23T17:00:31;0.60;1.00
76838;DHT22;65797;47.352;8.164;2023-01-23T17:03:00;0.70;1.00
76838;DHT22;65797;47.352;8.164;2023-01-23T17:05:26;0.70;1.00
76838;DHT22;65797;47.352;8.164;2023-01-23T17:49:56;0.70;37.20
76838;DHT22;65797;47.352;8.164;2023-01-23T17:52:26;0.80;73.40
76838;DHT22;65797;47.352;8.164;2023-01-23T17:57:57;0.80;99.90
76838;DHT22;65797;47.352;8.164;2023-01-23T18:00:23;0.80;99.90
76838;DHT22;65797;47.352;8.164;2023-01-23T18:02:59;0.80;99.90
76838;DHT22;65797;47.352;8.164;2023-01-23T18:05:25;0.80;99.90
76838;DHT22;65797;47.352;8.164;2023-01-23T18:07:52;0.90;99.90
76838;DHT22;65797;47.352;8.164;2023-01-23T18:10:19;0.90;99.90
76838;DHT22;65797;47.352;8.164;2023-01-23T18:12:56;0.90;99.90
76838;DHT22;65797;47.352;8.164;2023-01-23T18:15:55;0.90;99.90
76838;DHT22;65797;47.352;8.164;2023-01-23T18:20:50;0.90;99.90
76838;DHT22;65797;47.352;8.164;2023-01-23T18:23:22;1.00;99.90
76838;DHT22;65797;47.352;8.164;2023-01-23T18:26:01;1.00;99.90
76838;DHT22;65797;47.352;8.164;2023-01-23T18:28:47;1.00;99.90
76838;DHT22;65797;47.352;8.164;2023-01-23T18:31:21;1.00;99.90
76838;DHT22;65797;47.352;8.164;2023-01-23T18:34:05;1.10;99.90
76838;DHT22;65797;47.352;8.164;2023-01-23T18:42:01;1.10;99.90
76838;DHT22;65797;47.352;8.164;2023-01-23T18:44:32;1.00;99.90
76838;DHT22;65797;47.352;8.164;2023-01-23T18:46:59;1.10;99.90
76838;DHT22;65797;47.352;8.164;2023-01-23T18:49:30;1.10;99.90
76838;DHT22;65797;47.352;8.164;2023-01-23T18:52:11;1.20;99.90
76838;DHT22;65797;47.352;8.164;2023-01-23T18:54:58;1.10;99.90
76838;DHT22;65797;47.352;8.164;2023-01-23T19:00:21;1.20;99.90